createdAt,value
2018-07-30T00:01:35.759Z,7.30
2018-07-30T00:04:05.356Z,7.60
2018-07-30T00:06:42.545Z,7.67
2018-07-30T00:09:18.336Z,7.10
2018-07-30T00:11:49.844Z,6.30
2018-07-30T00:14:26.015Z,6.93
2018-07-30T00:16:58.985Z,7.50
2018-07-30T00:19:29.783Z,7.10
2018-07-30T00:22:07.648Z,7.10
2018-07-30T00:24:37.381Z,7.07
2018-07-30T00:27:09.680Z,6.93
2018-07-30T00:29:41.008Z,7.13
2018-07-30T00:32:12.980Z,7.13
2018-07-30T00:34:47.923Z,6.80
2018-07-30T00:37:24.654Z,7.20
2018-07-30T00:39:57.659Z,6.80
2018-07-30T00:42:28.670Z,7.60
2018-07-30T00:44:58.442Z,7.90
2018-07-30T00:47:31.014Z,8.00
2018-07-30T00:50:01.364Z,8.45
2018-07-30T00:52:35.687Z,7.30
2018-07-30T00:55:14.044Z,8.23
2018-07-30T00:57:46.868Z,7.42
2018-07-30T01:00:17.668Z,7.85
2018-07-30T01:02:47.304Z,7.67
2018-07-30T01:05:19.885Z,8.33
2018-07-30T01:07:51.764Z,7.67
2018-07-30T01:10:23.259Z,9.03
2018-07-30T01:12:57.858Z,7.70
2018-07-30T01:15:28.926Z,8.70
2018-07-30T01:18:07.959Z,7.50
2018-07-30T01:20:38.742Z,8.03
2018-07-30T01:23:15.523Z,8.28
2018-07-30T01:25:48.215Z,8.15
2018-07-30T01:28:21.225Z,7.37
2018-07-30T01:30:53.124Z,7.58
2018-07-30T01:33:25.931Z,7.60
2018-07-30T01:36:01.543Z,7.72
2018-07-30T01:38:32.565Z,7.50
2018-07-30T01:41:07.772Z,8.00
2018-07-30T01:43:37.303Z,8.10
2018-07-30T01:46:09.224Z,7.30
2018-07-30T01:48:39.160Z,8.35
2018-07-30T01:51:11.127Z,7.97
2018-07-30T01:53:41.016Z,7.80
2018-07-30T01:56:12.232Z,8.25
2018-07-30T01:58:43.744Z,8.43
2018-07-30T02:01:15.728Z,8.90
2018-07-30T02:03:49.724Z,7.90
2018-07-30T02:06:20.233Z,8.30
2018-07-30T02:08:52.291Z,8.90
2018-07-30T02:11:25.479Z,7.67
2018-07-30T02:13:56.783Z,8.53
2018-07-30T02:16:32.663Z,7.87
2018-07-30T02:19:05.670Z,8.10
2018-07-30T02:21:39.120Z,7.65
2018-07-30T02:24:15.719Z,7.20
2018-07-30T02:26:53.626Z,8.45
2018-07-30T02:29:25.958Z,7.95
2018-07-30T02:32:02.205Z,8.83
2018-07-30T02:34:34.979Z,7.55
2018-07-30T02:37:07.646Z,8.18
2018-07-30T02:39:40.419Z,8.13
2018-07-30T02:42:13.969Z,8.90
2018-07-30T02:44:49.567Z,9.08
2018-07-30T02:47:24.712Z,8.63
2018-07-30T02:50:02.824Z,8.55
2018-07-30T02:52:33.184Z,8.50
2018-07-30T02:55:03.184Z,7.97
2018-07-30T02:57:34.882Z,8.85
2018-07-30T03:00:07.431Z,8.18
2018-07-30T03:02:39.236Z,9.20
2018-07-30T03:05:13.163Z,8.55
2018-07-30T03:07:45.232Z,8.50
2018-07-30T03:10:18.744Z,8.45
2018-07-30T03:12:50.707Z,8.10
2018-07-30T03:15:25.854Z,8.43
2018-07-30T03:17:59.545Z,8.78
2018-07-30T03:20:30.450Z,8.63
2018-07-30T03:23:02.441Z,8.00
2018-07-30T03:25:33.919Z,9.15
2018-07-30T03:28:05.990Z,10.08
2018-07-30T03:30:39.274Z,8.43
2018-07-30T03:33:10.621Z,9.20
2018-07-30T03:35:38.273Z,9.25
2018-07-30T03:38:05.974Z,9.28
2018-07-30T03:40:33.675Z,9.43
2018-07-30T03:43:01.343Z,8.75
2018-07-30T03:45:29.007Z,8.53
2018-07-30T03:47:56.667Z,9.60
2018-07-30T03:50:24.424Z,9.23
2018-07-30T03:52:52.165Z,8.70
2018-07-30T03:55:19.887Z,8.73
2018-07-30T03:57:47.576Z,8.90
2018-07-30T04:00:15.312Z,8.58
2018-07-30T04:02:43.447Z,8.75
2018-07-30T04:05:11.154Z,10.40
2018-07-30T04:07:38.835Z,9.58
2018-07-30T04:10:07.339Z,9.05
2018-07-30T04:12:35.011Z,8.93
2018-07-30T04:15:02.722Z,9.15
2018-07-30T04:17:30.356Z,8.85
2018-07-30T04:19:58.037Z,9.90
2018-07-30T04:22:25.716Z,9.40
2018-07-30T04:24:53.358Z,10.03
2018-07-30T04:27:21.028Z,9.48
2018-07-30T04:29:48.680Z,9.00
2018-07-30T04:32:16.329Z,9.45
2018-07-30T04:34:43.953Z,9.93
2018-07-30T04:37:11.618Z,9.48
2018-07-30T04:39:39.241Z,9.28
2018-07-30T04:42:06.935Z,9.00
2018-07-30T04:44:34.615Z,9.43
2018-07-30T04:47:02.291Z,9.45
2018-07-30T04:49:29.933Z,9.43
2018-07-30T04:51:57.595Z,9.43
2018-07-30T04:54:25.233Z,9.30
2018-07-30T04:56:52.883Z,10.38
2018-07-30T04:59:20.532Z,9.45
2018-07-30T05:01:48.231Z,9.75
2018-07-30T05:04:15.907Z,9.25
2018-07-30T05:06:43.557Z,11.50
2018-07-30T05:09:11.196Z,10.00
2018-07-30T05:11:38.870Z,10.60
2018-07-30T05:14:06.527Z,10.32
2018-07-30T05:16:34.211Z,10.30
2018-07-30T05:19:01.858Z,9.25
2018-07-30T05:21:29.511Z,10.75
2018-07-30T05:23:57.173Z,13.45
2018-07-30T05:26:24.880Z,14.00
2018-07-30T05:28:52.543Z,14.30
2018-07-30T05:31:20.175Z,13.72
2018-07-30T05:33:47.855Z,13.75
2018-07-30T05:36:15.538Z,13.98
2018-07-30T05:38:43.223Z,13.30
2018-07-30T05:41:10.868Z,11.75
2018-07-30T05:43:38.521Z,12.50
2018-07-30T05:46:06.195Z,11.60
2018-07-30T05:48:33.887Z,12.25
2018-07-30T05:51:01.528Z,12.50
2018-07-30T05:53:29.258Z,12.20
2018-07-30T05:55:56.899Z,12.77
2018-07-30T05:58:24.559Z,12.53
2018-07-30T06:00:52.223Z,11.70
2018-07-30T06:03:19.994Z,12.07
2018-07-30T06:05:47.657Z,11.17
2018-07-30T06:08:15.333Z,11.03
2018-07-30T06:10:43.032Z,11.78
2018-07-30T06:13:10.739Z,12.25
2018-07-30T06:15:38.355Z,13.17
2018-07-30T06:18:06.059Z,11.90
2018-07-30T06:20:33.743Z,13.27
2018-07-30T06:23:01.406Z,11.40
2018-07-30T06:25:29.078Z,12.20
2018-07-30T06:27:56.747Z,13.17
2018-07-30T06:30:24.434Z,12.00
2018-07-30T06:32:52.091Z,13.43
2018-07-30T06:35:19.764Z,12.80
2018-07-30T06:37:47.400Z,12.20
2018-07-30T06:40:15.091Z,12.57
2018-07-30T06:42:42.894Z,12.37
2018-07-30T06:45:10.568Z,14.03
2018-07-30T06:47:38.211Z,14.47
2018-07-30T06:50:05.891Z,12.07
2018-07-30T06:52:33.589Z,12.30
2018-07-30T06:55:01.234Z,12.53
2018-07-30T06:57:28.939Z,11.87
2018-07-30T06:59:56.590Z,11.60
2018-07-30T07:02:24.319Z,10.70
2018-07-30T07:04:55.886Z,10.60
2018-07-30T07:07:25.288Z,12.20
2018-07-30T07:09:55.367Z,10.77
2018-07-30T07:12:30.718Z,11.87
2018-07-30T07:15:05.908Z,11.53
2018-07-30T07:17:40.894Z,11.70
2018-07-30T07:20:14.591Z,10.70
2018-07-30T07:22:46.415Z,11.83
2018-07-30T07:25:17.980Z,11.20
2018-07-30T07:27:52.235Z,10.80
2018-07-30T07:30:31.615Z,8.70
2018-07-30T07:33:24.145Z,8.47
2018-07-30T07:36:10.393Z,8.50
2018-07-30T07:38:50.223Z,8.90
2018-07-30T07:41:53.350Z,9.33
2018-07-30T07:44:35.068Z,9.40
2018-07-30T07:50:56.945Z,9.20
2018-07-30T07:54:13.388Z,9.13
2018-07-30T07:56:55.302Z,9.07
2018-07-30T07:59:28.878Z,8.20
2018-07-30T08:01:59.357Z,7.60
2018-07-30T08:04:32.502Z,9.77
2018-07-30T08:07:02.203Z,8.77
2018-07-30T08:09:34.354Z,8.83
2018-07-30T08:15:16.784Z,9.53
2018-07-30T08:17:47.039Z,9.03
2018-07-30T08:20:21.372Z,9.30
2018-07-30T08:23:00.767Z,10.23
2018-07-30T08:28:29.463Z,9.10
2018-07-30T08:31:00.499Z,8.87
2018-07-30T08:33:34.836Z,7.90
2018-07-30T08:36:10.302Z,7.90
2018-07-30T08:38:44.322Z,7.40
2018-07-30T08:41:23.494Z,7.87
2018-07-30T08:43:57.836Z,8.20
2018-07-30T08:46:30.720Z,6.83
2018-07-30T08:49:01.285Z,7.60
2018-07-30T08:51:35.588Z,8.57
2018-07-30T08:54:13.357Z,8.13
2018-07-30T08:56:48.845Z,8.23
2018-07-30T08:59:20.098Z,7.97
2018-07-30T09:01:56.009Z,7.17
2018-07-30T09:04:28.652Z,7.60
2018-07-30T09:07:03.273Z,6.83
2018-07-30T09:09:42.343Z,7.20
2018-07-30T09:12:16.238Z,6.87
2018-07-30T09:14:52.008Z,5.67
2018-07-30T09:17:35.850Z,6.70
2018-07-30T09:20:12.876Z,6.50
2018-07-30T09:22:44.576Z,6.83
2018-07-30T09:25:42.794Z,6.57
2018-07-30T09:28:19.273Z,6.20
2018-07-30T09:30:51.417Z,6.43
2018-07-30T09:33:26.677Z,6.50
2018-07-30T09:36:01.831Z,5.60
2018-07-30T09:38:32.311Z,6.00
2018-07-30T09:41:04.849Z,5.70
2018-07-30T09:43:41.001Z,5.30
2018-07-30T09:46:16.263Z,5.97
2018-07-30T09:48:59.107Z,6.60
2018-07-30T10:30:59.677Z,4.17
2018-07-30T10:33:37.974Z,4.67
2018-07-30T10:36:09.676Z,4.70
2018-07-30T10:38:46.776Z,4.90
2018-07-30T10:41:16.299Z,5.63
2018-07-30T10:43:46.755Z,4.90
2018-07-30T10:46:21.742Z,5.10
2018-07-30T10:48:53.143Z,5.30
2018-07-30T10:51:24.825Z,5.10
2018-07-30T10:53:54.164Z,5.30
2018-07-30T10:56:23.553Z,5.47
2018-07-30T10:58:56.094Z,5.53
2018-07-30T11:01:26.682Z,5.77
2018-07-30T11:04:01.975Z,5.60
2018-07-30T11:06:35.948Z,4.93
2018-07-30T11:09:13.803Z,5.20
2018-07-30T11:11:45.390Z,4.77
2018-07-30T11:14:17.560Z,5.37
2018-07-30T11:16:58.775Z,5.23
2018-07-30T11:19:39.823Z,5.20
2018-07-30T11:25:01.229Z,5.27
2018-07-30T11:27:35.599Z,5.43
2018-07-30T11:30:08.756Z,5.57
2018-07-30T11:35:46.416Z,6.10
2018-07-30T11:38:27.415Z,5.67
2018-07-30T11:41:18.447Z,5.23
2018-07-30T11:44:08.445Z,4.90
2018-07-30T11:46:38.152Z,5.23
2018-07-30T11:57:27.917Z,5.10
2018-07-30T12:03:27.573Z,4.70
2018-07-30T12:09:00.923Z,5.20
2018-07-30T12:11:28.730Z,5.43
2018-07-30T12:13:56.488Z,5.47
2018-07-30T12:16:35.615Z,5.63
2018-07-30T12:21:56.893Z,4.97
2018-07-30T12:24:36.011Z,5.23
2018-07-30T12:27:10.232Z,5.00
2018-07-30T12:32:41.656Z,5.33
2018-07-30T12:35:21.082Z,5.67
2018-07-30T12:41:00.959Z,5.50
2018-07-30T12:43:30.891Z,5.67
2018-07-30T12:48:59.583Z,5.57
2018-07-30T12:52:18.178Z,5.47
2018-07-30T12:55:07.233Z,5.00
2018-07-30T12:57:53.260Z,4.50
2018-07-30T13:00:38.166Z,4.30
2018-07-30T13:03:27.656Z,5.37
2018-07-30T13:05:59.408Z,5.80
2018-07-30T13:08:27.152Z,5.20
2018-07-30T13:10:54.903Z,4.97
2018-07-30T13:13:22.570Z,4.97
2018-07-30T13:16:04.051Z,5.80
2018-07-30T13:18:32.723Z,5.10
2018-07-30T13:21:10.755Z,5.30
2018-07-30T13:23:39.061Z,4.90
2018-07-30T13:26:06.835Z,5.33
2018-07-30T13:28:53.033Z,5.10
2018-07-30T13:31:35.024Z,4.70
2018-07-30T13:34:19.360Z,5.27
2018-07-30T13:37:07.044Z,4.97
2018-07-30T13:39:35.220Z,5.47
2018-07-30T13:44:55.352Z,5.00
2018-07-30T13:47:40.688Z,5.03
2018-07-30T13:53:15.238Z,4.87
2018-07-30T13:55:54.988Z,4.60
2018-07-30T13:58:32.824Z,5.30
2018-07-30T14:01:14.085Z,5.10
2018-07-30T14:03:43.666Z,4.97
2018-07-30T14:06:29.925Z,5.63
2018-07-30T14:09:15.936Z,5.27
2018-07-30T14:11:57.377Z,4.90
2018-07-30T14:17:16.628Z,5.43
2018-07-30T14:22:50.941Z,5.80
2018-07-30T14:25:25.805Z,5.27
2018-07-30T14:28:03.144Z,4.93
2018-07-30T14:42:36.780Z,5.20
2018-07-30T14:45:34.357Z,5.00
2018-07-30T14:48:15.847Z,5.70
2018-07-30T14:50:43.613Z,5.57
2018-07-30T14:56:26.329Z,5.50
2018-07-30T14:59:15.585Z,5.53
2018-07-30T15:02:01.413Z,5.37
2018-07-30T15:04:47.811Z,4.90
2018-07-30T15:07:23.485Z,5.50
2018-07-30T15:10:05.641Z,5.23
2018-07-30T15:12:42.712Z,5.03
2018-07-30T15:15:12.724Z,5.00
2018-07-30T15:17:49.003Z,4.80
2018-07-30T15:35:34.087Z,5.23
2018-07-30T15:38:08.491Z,5.77
2018-07-30T15:40:44.308Z,5.43
2018-07-30T15:43:28.120Z,5.20
2018-07-30T15:46:00.887Z,4.90
2018-07-30T15:48:38.338Z,5.30
2018-07-30T15:51:20.910Z,5.10
2018-07-30T15:56:47.394Z,5.00
2018-07-30T15:59:25.385Z,5.73
2018-07-30T16:04:54.292Z,5.00
2018-07-30T16:07:42.755Z,5.33
2018-07-30T16:10:31.569Z,4.70
2018-07-30T16:13:30.581Z,5.13
2018-07-30T16:19:17.317Z,5.57
2018-07-30T16:22:03.381Z,5.10
2018-07-30T16:24:42.254Z,5.63
2018-07-30T16:27:28.713Z,5.43
2018-07-30T16:29:57.467Z,5.23
2018-07-30T16:32:30.794Z,5.30
2018-07-30T16:34:59.782Z,5.03
2018-07-30T16:37:27.610Z,4.90
2018-07-30T16:40:01.145Z,5.40
2018-07-30T16:48:32.763Z,5.57
2018-07-30T16:51:19.089Z,5.70
2018-07-30T16:59:36.360Z,5.20
2018-07-30T17:02:04.124Z,5.27
2018-07-30T17:04:31.899Z,5.47
2018-07-30T17:07:14.299Z,5.37
2018-07-30T17:09:42.116Z,5.60
2018-07-30T17:12:09.894Z,5.17
2018-07-30T17:14:38.703Z,5.07
2018-07-30T17:17:06.637Z,4.80
2018-07-30T17:19:42.011Z,5.23
2018-07-30T17:22:20.714Z,5.23
2018-07-30T17:27:37.323Z,5.07
2018-07-30T17:30:07.677Z,5.07
2018-07-30T17:32:35.433Z,5.30
2018-07-30T17:35:03.663Z,4.93
2018-07-30T17:37:32.766Z,5.30
2018-07-30T17:40:00.873Z,4.93
2018-07-30T17:42:29.090Z,5.67
2018-07-30T17:44:59.087Z,4.80
2018-07-30T17:47:27.646Z,4.93
2018-07-30T17:49:55.566Z,5.10
2018-07-30T17:52:23.509Z,5.10
2018-07-30T17:54:52.377Z,4.40
2018-07-30T17:57:20.240Z,4.10
2018-07-30T17:59:48.207Z,5.10
2018-07-30T18:02:16.365Z,4.33
2018-07-30T18:04:44.068Z,5.00
2018-07-30T18:07:11.851Z,4.67
2018-07-30T18:09:40.478Z,4.63
2018-07-30T18:12:08.177Z,4.93
2018-07-30T18:14:35.886Z,4.87
2018-07-30T18:17:03.725Z,4.67
2018-07-30T18:19:31.471Z,4.50
2018-07-30T18:21:59.273Z,4.70
2018-07-30T18:24:27.063Z,5.53
2018-07-30T18:26:54.827Z,5.30
2018-07-30T18:29:22.866Z,5.40
2018-07-30T18:31:50.771Z,5.40
2018-07-30T18:34:21.656Z,4.93
2018-07-30T18:36:49.964Z,4.53
2018-07-30T18:39:17.899Z,4.53
2018-07-30T18:41:46.451Z,5.70
2018-07-30T18:44:14.305Z,5.07
2018-07-30T18:46:43.102Z,5.03
2018-07-30T18:49:10.893Z,4.93
2018-07-30T18:51:38.665Z,4.90
2018-07-30T18:54:07.005Z,5.10
2018-07-30T18:56:34.873Z,5.37
2018-07-30T18:59:02.784Z,4.93
2018-07-30T19:01:30.716Z,5.00
2018-07-30T19:03:59.303Z,5.13
2018-07-30T19:06:27.564Z,4.57
2018-07-30T19:08:56.919Z,4.97
2018-07-30T19:11:24.980Z,5.10
2018-07-30T19:13:58.931Z,4.70
2018-07-30T19:16:27.083Z,4.70
2018-07-30T19:18:54.836Z,4.30
2018-07-30T19:21:23.784Z,5.10
2018-07-30T19:23:51.701Z,5.20
2018-07-30T19:26:20.093Z,5.33
2018-07-30T19:28:49.544Z,5.70
2018-07-30T19:31:18.649Z,4.83
2018-07-30T19:33:47.174Z,4.90
2018-07-30T19:36:15.820Z,5.37
2018-07-30T19:38:43.577Z,5.20
2018-07-30T19:41:11.707Z,5.30
2018-07-30T19:43:39.432Z,5.03
2018-07-30T19:46:07.572Z,5.50
2018-07-30T19:48:35.422Z,5.10
2018-07-30T19:51:03.417Z,5.03
2018-07-30T19:53:31.304Z,4.40
2018-07-30T19:55:59.156Z,4.57
2018-07-30T19:58:27.053Z,4.77
2018-07-30T20:00:55.267Z,5.50
2018-07-30T20:03:23.576Z,4.90
2018-07-30T20:05:51.759Z,4.93
2018-07-30T20:08:19.680Z,5.67
2018-07-30T20:10:47.726Z,5.00
2018-07-30T20:13:15.524Z,5.00
2018-07-30T20:15:43.549Z,4.57
2018-07-30T20:18:11.340Z,4.50
2018-07-30T20:20:39.315Z,4.87
2018-07-30T20:23:07.423Z,5.50
2018-07-30T20:25:35.285Z,5.13
2018-07-30T20:28:03.309Z,4.40
2018-07-30T20:30:31.395Z,4.90
2018-07-30T20:32:59.458Z,5.47
2018-07-30T20:35:27.249Z,4.50
2018-07-30T20:37:55.019Z,5.00
2018-07-30T20:40:22.800Z,5.03
2018-07-30T20:42:50.551Z,4.37
2018-07-30T20:45:18.280Z,4.63
2018-07-30T20:47:46.024Z,4.50
2018-07-30T20:50:13.733Z,4.87
2018-07-30T20:52:41.472Z,4.70
2018-07-30T20:55:09.240Z,5.50
2018-07-30T20:57:37.039Z,5.77
2018-07-30T21:00:04.996Z,5.93
2018-07-30T21:02:32.719Z,5.43
2018-07-30T21:05:00.584Z,6.20
2018-07-30T21:07:28.380Z,6.80
2018-07-30T21:09:56.172Z,6.47
2018-07-30T21:12:24.166Z,6.00
2018-07-30T21:14:51.963Z,5.80
2018-07-30T21:17:19.736Z,5.40
2018-07-30T21:19:47.474Z,5.83
2018-07-30T21:22:15.203Z,4.93
2018-07-30T21:24:42.976Z,5.90
2018-07-30T21:27:10.700Z,4.83
2018-07-30T21:29:38.469Z,5.30
2018-07-30T21:32:06.310Z,4.63
2018-07-30T21:34:34.032Z,4.57
2018-07-30T21:37:01.754Z,5.07
2018-07-30T21:39:29.530Z,4.73
2018-07-30T21:41:57.336Z,4.70
2018-07-30T21:44:25.040Z,4.90
2018-07-30T21:46:52.851Z,4.30
2018-07-30T21:49:20.560Z,4.50
2018-07-30T21:51:48.307Z,5.03
2018-07-30T21:54:16.015Z,5.27
2018-07-30T21:56:43.728Z,5.67
2018-07-30T21:59:11.484Z,5.17
2018-07-30T22:01:39.267Z,5.10
2018-07-30T22:04:07.103Z,6.07
2018-07-30T22:06:35.454Z,5.50
2018-07-30T22:09:04.833Z,4.80
2018-07-30T22:11:33.335Z,5.00
2018-07-30T22:14:01.181Z,5.83
2018-07-30T22:16:28.922Z,5.57
2018-07-30T22:18:57.451Z,5.50
2018-07-30T22:21:25.231Z,6.57
2018-07-30T22:23:53.060Z,6.00
2018-07-30T22:26:20.848Z,5.40
2018-07-30T22:28:48.546Z,5.80
2018-07-30T22:31:16.269Z,5.80
2018-07-30T22:33:44.000Z,5.53
2018-07-30T22:36:11.783Z,6.07
2018-07-30T22:38:39.725Z,5.50
2018-07-30T22:41:07.478Z,5.90
2018-07-30T22:43:35.180Z,5.40
2018-07-30T22:46:03.012Z,5.70
2018-07-30T22:48:33.028Z,5.33
2018-07-30T22:51:00.780Z,5.80
2018-07-30T22:53:28.504Z,5.87
2018-07-30T22:55:56.246Z,5.40
2018-07-30T22:58:24.378Z,4.97
2018-07-30T23:00:53.491Z,5.53
2018-07-30T23:03:21.352Z,5.40
2018-07-30T23:05:49.067Z,5.40
2018-07-30T23:08:16.812Z,5.70
2018-07-30T23:10:44.619Z,5.33
2018-07-30T23:13:12.442Z,5.50
2018-07-30T23:15:40.120Z,5.50
2018-07-30T23:18:08.621Z,5.20
2018-07-30T23:20:36.721Z,5.57
2018-07-30T23:23:04.482Z,5.90
2018-07-30T23:25:32.259Z,6.03
2018-07-30T23:27:59.999Z,5.60
2018-07-30T23:30:27.813Z,5.77
2018-07-30T23:32:55.575Z,6.77
2018-07-30T23:35:23.571Z,5.90
2018-07-30T23:37:51.263Z,5.70
2018-07-30T23:40:18.989Z,6.40
2018-07-30T23:42:47.397Z,6.20
2018-07-30T23:45:15.159Z,6.30
2018-07-30T23:47:42.892Z,6.00
2018-07-30T23:50:10.624Z,6.77
2018-07-30T23:52:38.355Z,6.10
2018-07-30T23:55:06.109Z,6.17
2018-07-30T23:57:33.873Z,6.20
